createdAt,value
2019-05-19T00:00:41.227Z,71.17
2019-05-19T00:03:08.714Z,71.13
2019-05-19T00:05:36.213Z,71.01
2019-05-19T00:08:03.714Z,70.95
2019-05-19T00:10:31.190Z,70.83
2019-05-19T00:12:58.731Z,70.78
2019-05-19T00:15:26.190Z,70.72
2019-05-19T00:17:53.689Z,70.46
2019-05-19T00:20:21.455Z,70.36
2019-05-19T00:22:49.558Z,69.96
2019-05-19T00:25:17.189Z,70.11
2019-05-19T00:27:44.690Z,70.23
2019-05-19T00:30:12.228Z,70.45
2019-05-19T00:32:39.719Z,70.53
2019-05-19T00:35:07.213Z,70.55
2019-05-19T00:37:34.691Z,70.58
2019-05-19T00:40:02.174Z,70.67
2019-05-19T00:42:29.683Z,70.97
2019-05-19T00:44:57.158Z,71.25
2019-05-19T00:47:24.778Z,71.37
2019-05-19T00:49:52.282Z,71.33
2019-05-19T00:52:19.772Z,71.42
2019-05-19T00:54:47.248Z,71.62
2019-05-19T00:57:14.799Z,71.58
2019-05-19T00:59:42.258Z,71.62
2019-05-19T01:02:09.719Z,71.76
2019-05-19T01:04:37.173Z,71.85
2019-05-19T01:07:04.710Z,71.93
2019-05-19T01:09:32.181Z,72.11
2019-05-19T01:11:59.622Z,72.18
2019-05-19T01:14:27.105Z,72.24
2019-05-19T01:16:54.590Z,72.40
2019-05-19T01:19:22.098Z,72.55
2019-05-19T01:21:49.644Z,72.76
2019-05-19T01:24:17.104Z,72.74
2019-05-19T01:26:44.718Z,72.86
2019-05-19T01:29:12.192Z,73.08
2019-05-19T01:31:39.749Z,72.99
2019-05-19T01:34:07.255Z,72.90
2019-05-19T01:36:34.726Z,72.91
2019-05-19T01:39:02.199Z,72.96
2019-05-19T01:41:29.739Z,73.01
2019-05-19T01:43:57.236Z,72.82
2019-05-19T01:46:24.788Z,72.57
2019-05-19T01:48:52.249Z,72.66
2019-05-19T01:51:19.762Z,72.74
2019-05-19T01:53:47.300Z,72.86
2019-05-19T01:56:14.781Z,73.06
2019-05-19T01:58:42.256Z,73.06
2019-05-19T02:01:09.852Z,73.13
2019-05-19T02:03:37.375Z,73.07
2019-05-19T02:06:05.008Z,73.13
2019-05-19T02:08:32.453Z,73.16
2019-05-19T02:10:59.936Z,73.24
2019-05-19T02:13:27.388Z,73.59
2019-05-19T02:15:54.865Z,73.71
2019-05-19T02:18:22.309Z,74.09
2019-05-19T02:20:49.819Z,74.02
2019-05-19T02:23:17.259Z,74.12
2019-05-19T02:25:44.757Z,74.24
2019-05-19T02:28:12.213Z,74.46
2019-05-19T02:30:39.701Z,74.79
2019-05-19T02:33:07.493Z,74.93
2019-05-19T02:35:34.982Z,75.07
2019-05-19T02:38:02.451Z,75.17
2019-05-19T02:40:29.928Z,75.23
2019-05-19T02:42:57.394Z,75.44
2019-05-19T02:45:24.860Z,75.53
2019-05-19T02:47:52.301Z,75.55
2019-05-19T02:50:19.862Z,75.64
2019-05-19T02:52:47.309Z,75.65
2019-05-19T02:55:14.821Z,75.61
2019-05-19T02:57:42.303Z,75.39
2019-05-19T03:00:09.862Z,75.37
2019-05-19T03:02:37.322Z,75.42
2019-05-19T03:05:04.881Z,75.56
2019-05-19T03:07:32.358Z,75.48
2019-05-19T03:09:59.828Z,75.43
2019-05-19T03:12:27.297Z,75.54
2019-05-19T03:14:54.868Z,75.35
2019-05-19T03:17:22.318Z,75.16
2019-05-19T03:19:49.788Z,75.33
2019-05-19T03:22:17.242Z,75.50
2019-05-19T03:24:44.798Z,75.48
2019-05-19T03:27:12.267Z,75.38
2019-05-19T03:29:39.773Z,75.30
2019-05-19T03:32:12.366Z,75.29
2019-05-19T03:34:37.206Z,75.11
2019-05-19T03:37:04.666Z,75.02
2019-05-19T03:39:32.170Z,75.03
2019-05-19T03:41:59.658Z,75.03
2019-05-19T03:44:27.154Z,75.07
2019-05-19T03:46:54.686Z,75.09
2019-05-19T03:49:22.150Z,75.20
2019-05-19T03:51:49.609Z,75.45
2019-05-19T03:54:17.129Z,75.51
2019-05-19T03:56:44.622Z,75.35
2019-05-19T03:59:12.109Z,75.29
2019-05-19T04:01:39.566Z,75.20
2019-05-19T04:04:07.076Z,75.21
2019-05-19T04:06:34.550Z,75.11
2019-05-19T04:09:02.003Z,75.15
2019-05-19T04:11:29.464Z,75.14
2019-05-19T04:13:56.996Z,75.00
2019-05-19T04:16:25.280Z,74.67
2019-05-19T04:18:52.777Z,74.28
2019-05-19T04:21:20.231Z,74.06
2019-05-19T04:23:48.240Z,73.92
2019-05-19T04:26:15.710Z,73.99
2019-05-19T04:28:43.198Z,73.91
2019-05-19T04:31:10.657Z,73.90
2019-05-19T04:33:38.190Z,73.94
2019-05-19T04:36:05.660Z,73.94
2019-05-19T04:38:33.152Z,73.74
2019-05-19T04:41:00.655Z,73.65
2019-05-19T04:43:28.158Z,73.90
2019-05-19T04:45:55.606Z,73.82
2019-05-19T04:48:23.206Z,73.68
2019-05-19T04:50:50.737Z,73.82
2019-05-19T04:53:18.219Z,73.63
2019-05-19T04:55:45.676Z,73.54
2019-05-19T04:58:13.169Z,73.49
2019-05-19T05:00:40.727Z,73.34
2019-05-19T05:03:08.228Z,73.26
2019-05-19T05:05:35.677Z,73.27
2019-05-19T05:08:03.344Z,73.04
2019-05-19T05:10:30.847Z,72.96
2019-05-19T05:12:58.355Z,72.94
2019-05-19T05:15:25.823Z,72.77
2019-05-19T05:17:53.331Z,72.86
2019-05-19T05:20:20.790Z,73.17
2019-05-19T05:22:48.277Z,73.44
2019-05-19T05:25:15.729Z,73.26
2019-05-19T05:27:43.213Z,73.07
2019-05-19T05:30:10.666Z,73.06
2019-05-19T05:32:38.172Z,73.03
2019-05-19T05:35:05.747Z,72.91
2019-05-19T05:37:33.206Z,72.70
2019-05-19T05:40:00.679Z,72.50
2019-05-19T05:42:31.585Z,72.27
2019-05-19T05:44:55.660Z,72.27
2019-05-19T05:47:23.134Z,72.19
2019-05-19T05:49:50.641Z,72.04
2019-05-19T05:52:18.132Z,71.92
2019-05-19T05:54:45.606Z,71.70
2019-05-19T05:57:13.095Z,71.41
2019-05-19T05:59:40.572Z,71.09
2019-05-19T06:02:08.049Z,70.70
2019-05-19T06:04:35.569Z,70.50
2019-05-19T06:07:03.040Z,70.41
2019-05-19T06:09:30.549Z,70.84
2019-05-19T06:11:58.123Z,71.35
2019-05-19T06:14:25.604Z,71.17
2019-05-19T06:16:53.110Z,70.69
2019-05-19T06:19:20.607Z,70.86
2019-05-19T06:21:48.074Z,71.57
2019-05-19T06:24:15.533Z,71.94
2019-05-19T06:26:43.092Z,71.93
2019-05-19T06:29:10.552Z,71.70
2019-05-19T06:31:38.043Z,71.16
2019-05-19T06:34:05.074Z,70.82
2019-05-19T06:36:32.591Z,70.90
2019-05-19T06:38:59.634Z,70.90
2019-05-19T06:41:27.136Z,70.67
2019-05-19T06:43:54.594Z,70.70
2019-05-19T06:46:22.097Z,70.45
2019-05-19T06:48:49.562Z,70.67
2019-05-19T06:51:17.047Z,70.66
2019-05-19T06:53:44.555Z,70.74
2019-05-19T06:56:12.070Z,70.70
2019-05-19T06:58:39.575Z,70.52
2019-05-19T07:01:07.086Z,70.21
2019-05-19T07:03:34.587Z,69.46
2019-05-19T07:06:02.164Z,68.60
2019-05-19T07:08:29.628Z,68.08
2019-05-19T07:10:57.131Z,67.66
2019-05-19T07:13:24.731Z,68.05
2019-05-19T07:15:52.234Z,68.45
2019-05-19T07:18:19.719Z,68.56
2019-05-19T07:20:47.225Z,68.46
2019-05-19T07:23:27.287Z,68.60
2019-05-19T07:25:42.288Z,68.34
2019-05-19T07:28:09.748Z,67.80
2019-05-19T07:30:37.268Z,67.27
2019-05-19T07:33:04.779Z,66.91
2019-05-19T07:35:32.364Z,66.80
2019-05-19T07:37:59.853Z,67.16
2019-05-19T07:40:27.392Z,67.38
2019-05-19T07:42:54.934Z,67.44
2019-05-19T07:45:22.423Z,67.18
2019-05-19T07:47:49.884Z,66.99
2019-05-19T07:50:17.348Z,67.11
2019-05-19T07:52:44.804Z,67.06
2019-05-19T07:55:12.277Z,67.44
2019-05-19T07:57:39.760Z,67.18
2019-05-19T08:00:07.360Z,66.54
2019-05-19T08:02:34.819Z,65.68
2019-05-19T08:05:02.372Z,65.36
2019-05-19T08:07:29.839Z,64.30
2019-05-19T08:09:57.293Z,63.34
2019-05-19T08:12:24.365Z,62.13
2019-05-19T08:14:52.094Z,60.37
2019-05-19T08:17:19.160Z,58.06
2019-05-19T08:19:46.186Z,56.25
2019-05-19T08:22:13.210Z,54.00
2019-05-19T08:24:40.336Z,52.98
2019-05-19T08:27:07.344Z,52.33
2019-05-19T08:29:34.406Z,50.38
2019-05-19T08:32:01.385Z,47.74
2019-05-19T08:34:28.471Z,46.35
2019-05-19T08:36:55.492Z,46.75
2019-05-19T08:39:22.526Z,47.84
2019-05-19T08:41:49.519Z,50.14
2019-05-19T08:44:16.642Z,51.52
2019-05-19T08:46:43.778Z,52.32
2019-05-19T08:49:10.808Z,52.82
2019-05-19T08:51:37.830Z,53.61
2019-05-19T08:54:14.415Z,53.77
2019-05-19T08:56:31.982Z,54.33
2019-05-19T08:58:59.330Z,55.33
2019-05-19T09:01:26.606Z,55.70
2019-05-19T09:03:53.613Z,56.10
2019-05-19T09:06:20.648Z,56.47
2019-05-19T09:08:48.975Z,56.88
2019-05-19T09:11:16.444Z,56.99
2019-05-19T09:13:43.944Z,57.55
2019-05-19T09:16:11.594Z,58.03
2019-05-19T09:18:39.137Z,57.73
2019-05-19T09:21:06.609Z,58.01
2019-05-19T09:23:34.071Z,58.54
2019-05-19T09:26:01.567Z,58.70
2019-05-19T09:28:29.084Z,58.87
2019-05-19T09:30:56.591Z,59.43
2019-05-19T09:33:24.037Z,59.66
2019-05-19T09:35:52.022Z,59.76
2019-05-19T09:38:19.523Z,60.07
2019-05-19T09:40:47.163Z,60.12
2019-05-19T09:43:14.988Z,60.14
2019-05-19T09:45:42.180Z,59.97
2019-05-19T09:48:09.643Z,60.27
2019-05-19T09:50:37.192Z,60.22
2019-05-19T09:53:04.671Z,59.85
2019-05-19T09:55:32.132Z,59.67
2019-05-19T09:58:00.079Z,59.44
2019-05-19T10:00:27.647Z,60.50
2019-05-19T10:02:55.291Z,59.45
2019-05-19T10:05:22.765Z,58.45
2019-05-19T10:07:50.342Z,58.31
2019-05-19T10:10:17.845Z,58.42
2019-05-19T10:12:45.290Z,58.66
2019-05-19T10:15:12.990Z,59.13
2019-05-19T10:17:40.617Z,59.32
2019-05-19T10:20:08.170Z,59.57
2019-05-19T10:22:36.321Z,59.57
2019-05-19T10:25:20.463Z,60.84
2019-05-19T10:27:31.427Z,61.25
2019-05-19T10:29:58.975Z,61.05
2019-05-19T10:32:26.474Z,60.77
2019-05-19T10:34:54.139Z,60.41
2019-05-19T10:37:21.784Z,60.72
2019-05-19T10:39:49.269Z,61.38
2019-05-19T10:42:16.714Z,61.10
2019-05-19T10:44:44.338Z,60.72
2019-05-19T10:47:11.501Z,60.46
2019-05-19T10:49:38.620Z,60.57
2019-05-19T10:52:06.124Z,60.75
2019-05-19T10:54:33.154Z,61.68
2019-05-19T10:57:00.333Z,62.27
2019-05-19T10:59:27.512Z,62.91
2019-05-19T11:01:54.974Z,63.25
2019-05-19T11:04:22.596Z,63.86
2019-05-19T11:06:49.580Z,63.96
2019-05-19T11:09:16.591Z,64.47
2019-05-19T11:11:44.597Z,65.32
2019-05-19T11:14:12.119Z,64.92
2019-05-19T11:16:39.609Z,64.92
2019-05-19T11:19:07.119Z,65.02
2019-05-19T11:21:35.067Z,65.48
2019-05-19T11:24:02.546Z,64.85
2019-05-19T11:26:30.091Z,64.27
2019-05-19T11:28:57.633Z,62.95
2019-05-19T11:31:25.117Z,63.10
2019-05-19T11:33:52.666Z,62.69
2019-05-19T11:36:20.289Z,61.30
2019-05-19T11:38:47.802Z,61.21
2019-05-19T11:41:15.302Z,61.18
2019-05-19T11:43:42.949Z,60.93
2019-05-19T11:46:10.428Z,61.23
2019-05-19T11:48:37.976Z,60.65
2019-05-19T11:51:06.013Z,60.20
2019-05-19T11:53:33.686Z,59.89
2019-05-19T11:56:06.709Z,59.24
2019-05-19T11:58:28.633Z,59.67
2019-05-19T12:00:56.171Z,58.48
2019-05-19T12:03:23.238Z,57.85
2019-05-19T12:05:50.417Z,57.80
2019-05-19T12:08:17.498Z,57.54
2019-05-19T12:10:44.487Z,56.97
2019-05-19T12:13:11.520Z,56.05
2019-05-19T12:15:38.535Z,55.67
2019-05-19T12:18:05.624Z,54.40
2019-05-19T12:20:32.635Z,53.79
2019-05-19T12:22:59.623Z,53.88
2019-05-19T12:25:26.692Z,51.93
2019-05-19T12:27:53.746Z,52.06
2019-05-19T12:30:20.740Z,51.37
2019-05-19T12:32:47.897Z,50.62
2019-05-19T12:35:14.951Z,49.74
2019-05-19T12:37:42.068Z,48.91
2019-05-19T12:40:09.074Z,48.93
2019-05-19T12:42:36.179Z,48.12
2019-05-19T12:45:03.188Z,47.59
2019-05-19T12:47:30.394Z,47.20
2019-05-19T12:49:57.539Z,46.38
2019-05-19T12:52:27.441Z,46.72
2019-05-19T12:54:54.473Z,46.47
2019-05-19T12:57:21.545Z,45.40
2019-05-19T12:59:48.644Z,44.22
2019-05-19T13:02:15.655Z,44.07
2019-05-19T13:04:43.454Z,44.42
2019-05-19T13:07:10.481Z,44.09
2019-05-19T13:09:37.511Z,45.08
2019-05-19T13:12:04.546Z,45.58
2019-05-19T13:14:31.635Z,46.17
2019-05-19T13:16:58.986Z,46.30
2019-05-19T13:19:26.383Z,46.02
2019-05-19T13:21:54.487Z,45.70
2019-05-19T13:24:22.463Z,46.34
2019-05-19T13:26:56.451Z,46.25
2019-05-19T13:29:17.418Z,45.58
2019-05-19T13:31:44.470Z,44.08
2019-05-19T13:34:11.562Z,44.38
2019-05-19T13:36:40.406Z,43.10
2019-05-19T13:39:06.533Z,41.59
2019-05-19T13:41:33.994Z,39.65
2019-05-19T13:44:04.161Z,38.86
2019-05-19T13:46:31.654Z,39.43
2019-05-19T13:48:59.175Z,39.66
2019-05-19T13:51:27.314Z,39.91
2019-05-19T13:53:55.275Z,40.01
2019-05-19T13:56:23.068Z,40.50
2019-05-19T13:58:50.235Z,41.00
2019-05-19T14:01:28.088Z,40.99
2019-05-19T14:03:44.538Z,41.80
2019-05-19T14:06:11.975Z,42.93
2019-05-19T14:08:39.069Z,43.64
2019-05-19T14:11:06.100Z,43.86
2019-05-19T14:13:33.214Z,43.11
2019-05-19T14:16:00.533Z,42.34
2019-05-19T14:18:27.663Z,41.89
2019-05-19T14:20:54.862Z,42.04
2019-05-19T14:23:22.057Z,42.43
2019-05-19T14:25:50.055Z,42.95
2019-05-19T14:28:17.067Z,42.72
2019-05-19T14:30:44.177Z,42.78
2019-05-19T14:33:11.532Z,42.65
2019-05-19T14:35:38.715Z,42.93
2019-05-19T14:38:05.761Z,43.13
2019-05-19T14:40:32.808Z,43.24
2019-05-19T14:43:00.110Z,43.67
2019-05-19T14:45:27.169Z,43.98
2019-05-19T14:47:54.367Z,44.76
2019-05-19T14:50:21.678Z,45.40
2019-05-19T14:52:48.728Z,45.38
2019-05-19T14:55:15.741Z,45.65
2019-05-19T14:57:45.243Z,45.88
2019-05-19T15:00:09.886Z,46.59
2019-05-19T15:02:36.889Z,46.71
2019-05-19T15:05:04.027Z,46.72
2019-05-19T15:07:31.207Z,46.41
2019-05-19T15:09:58.355Z,46.28
2019-05-19T15:12:25.490Z,46.33
2019-05-19T15:14:52.656Z,45.81
2019-05-19T15:17:20.018Z,46.08
2019-05-19T15:19:47.276Z,46.02
2019-05-19T15:22:14.397Z,45.42
2019-05-19T15:24:42.021Z,45.85
2019-05-19T15:27:09.010Z,45.09
2019-05-19T15:29:36.010Z,45.41
2019-05-19T15:32:03.337Z,45.09
2019-05-19T15:34:30.518Z,45.06
2019-05-19T15:36:57.602Z,44.68
2019-05-19T15:39:24.717Z,44.77
2019-05-19T15:41:51.781Z,44.94
2019-05-19T15:44:18.792Z,44.61
2019-05-19T15:46:45.850Z,44.18
2019-05-19T15:49:13.161Z,44.35
2019-05-19T15:51:40.294Z,44.80
2019-05-19T15:54:07.340Z,44.72
2019-05-19T15:56:34.398Z,44.89
2019-05-19T15:59:01.396Z,45.33
2019-05-19T16:01:28.885Z,45.61
2019-05-19T16:03:55.896Z,45.72
2019-05-19T16:06:22.939Z,46.47
2019-05-19T16:08:49.934Z,47.20
2019-05-19T16:11:16.975Z,47.86
2019-05-19T16:13:44.054Z,48.71
2019-05-19T16:18:44.584Z,49.85
2019-05-19T16:21:11.635Z,50.03
2019-05-19T16:23:38.692Z,50.08
2019-05-19T16:26:05.731Z,50.05
2019-05-19T16:28:33.731Z,50.32
2019-05-19T16:31:00.790Z,51.20
2019-05-19T16:33:28.003Z,51.48
2019-05-19T16:35:55.321Z,51.87
2019-05-19T16:38:22.446Z,51.74
2019-05-19T16:40:49.539Z,52.45
2019-05-19T16:43:16.637Z,52.48
2019-05-19T16:45:43.660Z,52.30
2019-05-19T16:48:10.851Z,52.51
2019-05-19T16:50:38.087Z,53.05
2019-05-19T16:53:05.686Z,53.73
2019-05-19T16:55:33.246Z,54.56
2019-05-19T16:58:02.342Z,55.30
2019-05-19T17:00:30.118Z,55.30
2019-05-19T17:02:59.836Z,54.90
2019-05-19T17:05:27.346Z,54.60
2019-05-19T17:07:54.833Z,54.32
2019-05-19T17:10:22.378Z,54.22
2019-05-19T17:12:49.856Z,54.46
2019-05-19T17:15:17.495Z,54.92
2019-05-19T17:17:45.635Z,55.40
2019-05-19T17:20:14.494Z,55.59
2019-05-19T17:22:41.939Z,55.84
2019-05-19T17:25:10.103Z,56.13
2019-05-19T17:27:37.593Z,56.59
2019-05-19T17:30:07.133Z,57.24
2019-05-19T17:32:35.174Z,57.31
2019-05-19T17:35:04.165Z,57.51
2019-05-19T17:37:31.623Z,57.70
2019-05-19T17:39:59.107Z,57.71
2019-05-19T17:42:26.725Z,57.71
2019-05-19T17:44:54.228Z,58.20
2019-05-19T17:47:21.860Z,58.35
2019-05-19T17:49:49.357Z,58.62
2019-05-19T17:52:16.362Z,58.45
2019-05-19T17:54:43.857Z,58.28
2019-05-19T17:57:11.333Z,58.33
2019-05-19T17:59:39.145Z,58.38
2019-05-19T18:02:06.831Z,58.16
2019-05-19T18:04:34.400Z,58.08
2019-05-19T18:07:01.875Z,58.24
2019-05-19T18:09:29.330Z,58.40
2019-05-19T18:11:56.841Z,58.58
2019-05-19T18:14:24.299Z,59.06
2019-05-19T18:16:51.762Z,59.38
2019-05-19T18:19:19.213Z,59.31
2019-05-19T18:21:47.545Z,59.37
2019-05-19T18:24:15.284Z,59.80
2019-05-19T18:26:42.805Z,59.84
2019-05-19T18:29:10.394Z,59.82
2019-05-19T18:31:37.850Z,59.99
2019-05-19T18:34:05.419Z,60.10
2019-05-19T18:36:32.922Z,60.41
2019-05-19T18:39:00.410Z,60.73
2019-05-19T18:41:27.888Z,61.01
2019-05-19T18:43:55.374Z,61.24
2019-05-19T18:46:22.839Z,61.46
2019-05-19T18:48:50.347Z,61.68
2019-05-19T18:51:17.791Z,62.03
2019-05-19T18:53:45.246Z,62.38
2019-05-19T18:56:12.699Z,62.80
2019-05-19T18:58:40.208Z,63.20
2019-05-19T19:01:07.674Z,63.17
2019-05-19T19:03:35.188Z,63.15
2019-05-19T19:06:02.738Z,63.39
2019-05-19T19:08:30.200Z,63.77
2019-05-19T19:10:57.683Z,63.78
2019-05-19T19:13:25.184Z,64.13
2019-05-19T19:15:52.637Z,64.15
2019-05-19T19:18:20.096Z,64.75
2019-05-19T19:20:47.576Z,64.75
2019-05-19T19:23:15.134Z,63.62
2019-05-19T19:25:42.655Z,63.73
2019-05-19T19:28:10.113Z,63.68
2019-05-19T19:30:37.641Z,63.79
2019-05-19T19:33:05.189Z,63.62
2019-05-19T19:35:39.049Z,63.38
2019-05-19T19:38:00.309Z,63.14
2019-05-19T19:40:28.608Z,63.42
2019-05-19T19:42:56.222Z,63.21
2019-05-19T19:45:23.695Z,62.76
2019-05-19T19:47:51.169Z,62.62
2019-05-19T19:50:18.927Z,62.63
2019-05-19T19:52:46.406Z,62.53
2019-05-19T19:55:13.886Z,62.55
2019-05-19T19:57:41.342Z,62.67
2019-05-19T20:00:17.911Z,62.75
2019-05-19T20:02:36.455Z,62.51
2019-05-19T20:05:03.933Z,62.47
2019-05-19T20:07:31.512Z,62.63
2019-05-19T20:09:59.177Z,62.53
2019-05-19T20:12:26.631Z,62.35
2019-05-19T20:14:54.101Z,62.29
2019-05-19T20:17:21.721Z,62.21
2019-05-19T20:19:49.194Z,62.46
2019-05-19T20:22:16.660Z,62.93
2019-05-19T20:24:44.189Z,63.24
2019-05-19T20:27:11.637Z,63.02
2019-05-19T20:29:39.123Z,62.80
2019-05-19T20:32:06.667Z,62.63
2019-05-19T20:34:34.242Z,62.63
2019-05-19T20:37:01.703Z,63.09
2019-05-19T20:39:29.190Z,63.56
2019-05-19T20:41:56.655Z,63.61
2019-05-19T20:44:24.135Z,63.71
2019-05-19T20:46:52.498Z,63.84
2019-05-19T20:49:20.006Z,63.86
2019-05-19T20:51:47.544Z,63.92
2019-05-19T20:54:15.041Z,64.01
2019-05-19T20:56:42.685Z,64.84
2019-05-19T20:59:10.174Z,65.45
2019-05-19T21:01:37.662Z,66.41
2019-05-19T21:04:05.151Z,66.40
2019-05-19T21:06:32.601Z,66.22
2019-05-19T21:09:00.123Z,66.01
2019-05-19T21:11:27.581Z,65.87
2019-05-19T21:13:55.715Z,65.90
2019-05-19T21:16:23.196Z,66.07
2019-05-19T21:18:51.070Z,66.20
2019-05-19T21:21:18.602Z,66.39
2019-05-19T21:23:46.158Z,66.47
2019-05-19T21:26:13.598Z,66.32
2019-05-19T21:28:41.302Z,66.06
2019-05-19T21:31:09.398Z,65.96
2019-05-19T21:33:36.871Z,65.85
2019-05-19T21:36:04.316Z,65.76
2019-05-19T21:38:31.850Z,65.75
2019-05-19T21:40:59.293Z,65.73
2019-05-19T21:43:26.771Z,65.49
2019-05-19T21:45:54.228Z,65.48
2019-05-19T21:48:36.251Z,65.72
2019-05-19T21:51:03.869Z,65.74
2019-05-19T21:53:31.363Z,65.71
2019-05-19T21:55:58.847Z,65.91
2019-05-19T21:58:26.336Z,65.84
2019-05-19T22:00:53.806Z,65.86
2019-05-19T22:03:21.921Z,66.09
2019-05-19T22:05:53.441Z,65.86
2019-05-19T22:08:16.936Z,65.78
2019-05-19T22:10:44.657Z,65.78
2019-05-19T22:13:12.143Z,65.86
2019-05-19T22:15:39.620Z,66.14
2019-05-19T22:18:07.182Z,66.23
2019-05-19T22:20:34.744Z,66.29
2019-05-19T22:23:02.223Z,66.82
2019-05-19T22:25:29.687Z,67.45
2019-05-19T22:27:57.192Z,68.04
2019-05-19T22:30:24.648Z,68.39
2019-05-19T22:32:52.222Z,68.53
2019-05-19T22:35:19.672Z,68.73
2019-05-19T22:37:47.700Z,68.61
2019-05-19T22:40:15.155Z,68.33
2019-05-19T22:42:42.626Z,68.11
2019-05-19T22:45:10.298Z,68.01
2019-05-19T22:47:37.794Z,68.02
2019-05-19T22:50:05.271Z,67.89
2019-05-19T22:52:32.750Z,67.75
2019-05-19T22:55:00.181Z,67.54
2019-05-19T22:57:27.703Z,67.74
2019-05-19T22:59:55.172Z,67.70
2019-05-19T23:02:22.666Z,67.65
2019-05-19T23:04:50.144Z,67.63
2019-05-19T23:07:17.960Z,67.71
2019-05-19T23:09:45.419Z,67.78
2019-05-19T23:12:12.882Z,67.89
2019-05-19T23:14:40.328Z,68.10
2019-05-19T23:17:07.807Z,68.38
2019-05-19T23:19:35.284Z,68.52
2019-05-19T23:22:02.857Z,68.48
2019-05-19T23:24:30.305Z,68.40
2019-05-19T23:26:57.778Z,68.15
2019-05-19T23:29:25.218Z,68.16
2019-05-19T23:32:06.290Z,68.45
2019-05-19T23:34:20.337Z,68.42
2019-05-19T23:36:47.823Z,68.47
2019-05-19T23:39:15.273Z,68.30
2019-05-19T23:41:42.747Z,68.12
2019-05-19T23:44:10.200Z,68.19
2019-05-19T23:46:37.748Z,68.20
2019-05-19T23:49:05.192Z,67.92
2019-05-19T23:51:32.651Z,68.04
2019-05-19T23:54:00.122Z,68.16
2019-05-19T23:56:27.595Z,68.59
2019-05-19T23:58:55.102Z,68.73
